Sachse's Hourly Summary for Saturday, July 7, 2018
Hour Temp
(f)
RH
(%)
Solar Rad.
(MJ/m2)
Rainfall
(in)
Wind
(mph)
7/7/2018 12:00 AM 79 68 0 0 2.07
7/7/2018 1:00 AM 78 70 0 0 1.62
7/7/2018 2:00 AM 74 72 0 0 1.44
7/7/2018 3:00 AM 75 78 0 0 1.51
7/7/2018 4:00 AM 74 78 0 0 0.8
7/7/2018 5:00 AM 74 82 0 0 0.16
7/7/2018 6:00 AM 73 90 0 0 1.44
7/7/2018 7:00 AM 72 90 0.04 0 1.57
7/7/2018 8:00 AM 74 79 0.44 0 1.32
7/7/2018 9:00 AM 78 69 1.06 0 3.52
7/7/2018 10:00 AM 80 65 1.61 0 3.33
7/7/2018 11:00 AM 83 59 2.23 0 3.13
7/7/2018 12:00 PM 86 53 2.67 0 2.87
7/7/2018 1:00 PM 88 48 2.96 0 3.33
7/7/2018 2:00 PM 89 45 2.23 0 3.05
7/7/2018 3:00 PM 90 43 1.91 0 3.35
7/7/2018 4:00 PM 92 36 2.51 0 5.21
7/7/2018 5:00 PM 93 34 2.1 0 5.06
7/7/2018 6:00 PM 92 36 1.02 0 6.83
7/7/2018 7:00 PM 90 41 0.72 0 5.51
7/7/2018 8:00 PM 90 40 0.45 0 4.16
7/7/2018 9:00 PM 88 42 0.04 0 0.82
7/7/2018 10:00 PM 84 49 0 0 3.78
7/7/2018 11:00 PM 84 54 0 0 1.66
Data Summary 82 59 21.99 0.00 2.81